createdAt,value
2023-03-11T00:02:09.809Z,95924.66
2023-03-11T00:04:55.564Z,95913.22
2023-03-11T00:07:41.706Z,95896.81
2023-03-11T00:10:31.252Z,95897.50
2023-03-11T00:13:17.204Z,95886.28
2023-03-11T00:16:03.100Z,95885.03
2023-03-11T00:18:51.634Z,95874.50
2023-03-11T00:21:37.324Z,95874.34
2023-03-11T00:24:22.940Z,95885.75
2023-03-11T00:27:08.434Z,95841.88
2023-03-11T00:29:53.638Z,95858.81
2023-03-11T00:32:39.802Z,95855.84
2023-03-11T00:35:29.623Z,95848.91
2023-03-11T00:38:17.408Z,95775.53
2023-03-11T00:41:03.717Z,95859.53
2023-03-11T00:43:50.113Z,95812.09
2023-03-11T00:46:35.680Z,95829.91
2023-03-11T00:49:20.936Z,95828.66
2023-03-11T00:52:06.790Z,95825.19
2023-03-11T00:54:52.243Z,95791.03
2023-03-11T00:57:40.081Z,95844.78
2023-03-11T01:00:27.748Z,95790.13
2023-03-11T01:03:14.296Z,95811.53
2023-03-11T01:05:59.763Z,95612.31
2023-03-11T01:08:45.528Z,95817.59
2023-03-11T01:11:31.545Z,95808.22
2023-03-11T01:14:16.840Z,95770.09
2023-03-11T01:17:03.242Z,95769.28
2023-03-11T01:19:49.553Z,95633.69
2023-03-11T01:22:34.898Z,95621.75
2023-03-11T01:25:22.690Z,95778.19
2023-03-11T01:28:10.554Z,95658.00
2023-03-11T01:30:55.968Z,95779.44
2023-03-11T01:33:41.553Z,95636.91
2023-03-11T01:36:27.082Z,95596.13
2023-03-11T01:39:12.467Z,95623.53
2023-03-11T01:41:58.201Z,95763.72
2023-03-11T01:44:43.510Z,95727.56
2023-03-11T01:47:37.881Z,95769.81
2023-03-11T01:50:27.295Z,95745.16
2023-03-11T01:53:15.763Z,95724.50
2023-03-11T01:56:03.867Z,95754.81
2023-03-11T01:58:52.613Z,95727.00
2023-03-11T02:01:46.817Z,95728.63
2023-03-11T02:04:34.815Z,95576.53
2023-03-11T02:07:20.424Z,95596.38
2023-03-11T02:10:12.243Z,95725.97
2023-03-11T02:12:57.954Z,95707.59
2023-03-11T02:15:47.243Z,95706.38
2023-03-11T02:18:33.749Z,95714.00
2023-03-11T02:21:29.221Z,95692.28
2023-03-11T02:24:30.965Z,95690.50
2023-03-11T02:27:19.359Z,95681.56
2023-03-11T02:30:08.427Z,95664.56
2023-03-11T02:32:57.555Z,95684.50
2023-03-11T02:35:43.717Z,95692.88
2023-03-11T02:38:29.569Z,95714.91
2023-03-11T02:41:20.316Z,95687.91
2023-03-11T02:44:11.867Z,95668.84
2023-03-11T02:46:58.382Z,95670.69
2023-03-11T02:49:44.461Z,95505.69
2023-03-11T02:52:34.138Z,95669.41
2023-03-11T02:55:20.675Z,95632.44
2023-03-11T02:58:05.866Z,95624.78
2023-03-11T03:00:51.437Z,95645.44
2023-03-11T03:03:38.009Z,95642.94
2023-03-11T03:06:25.027Z,95632.06
2023-03-11T03:09:11.832Z,95621.22
2023-03-11T03:11:58.036Z,95527.41
2023-03-11T03:14:43.525Z,95627.81
2023-03-11T03:17:30.388Z,95487.38
2023-03-11T03:20:16.162Z,95608.56
2023-03-11T03:23:06.769Z,95613.22
2023-03-11T03:25:52.351Z,95649.00
2023-03-11T03:28:38.209Z,95631.00
2023-03-11T03:31:25.363Z,95609.34
2023-03-11T03:34:11.377Z,95580.97
2023-03-11T03:36:56.749Z,95588.28
2023-03-11T03:39:42.240Z,95626.03
2023-03-11T03:42:30.075Z,95595.28
2023-03-11T03:45:15.813Z,95579.56
2023-03-11T03:48:01.781Z,95461.41
2023-03-11T03:50:50.749Z,95587.59
2023-03-11T03:53:37.228Z,95590.94
2023-03-11T03:56:22.572Z,95600.75
2023-03-11T03:59:08.109Z,95541.13
2023-03-11T04:01:59.661Z,95584.25
2023-03-11T04:04:47.971Z,95558.34
2023-03-11T04:07:35.894Z,95395.41
2023-03-11T04:10:23.601Z,95540.56
2023-03-11T04:13:09.791Z,95545.00
2023-03-11T04:15:55.610Z,95556.38
2023-03-11T04:18:41.673Z,95516.69
2023-03-11T04:21:28.180Z,95536.47
2023-03-11T04:24:16.211Z,95557.56
2023-03-11T04:27:02.046Z,95443.06
2023-03-11T04:29:43.100Z,95528.44
2023-03-11T04:32:29.817Z,95404.31
2023-03-11T04:35:15.973Z,95417.28
2023-03-11T04:38:02.074Z,95532.28
2023-03-11T04:40:48.743Z,95530.59
2023-03-11T04:43:34.787Z,95513.16
2023-03-11T04:46:20.327Z,95527.38
2023-03-11T04:49:06.779Z,95390.63
2023-03-11T04:51:52.058Z,95331.41
2023-03-11T04:54:40.328Z,95507.53
2023-03-11T04:57:25.785Z,95513.50
2023-03-11T05:00:15.791Z,95512.25
2023-03-11T05:03:05.877Z,95415.16
2023-03-11T05:05:54.855Z,95385.97
2023-03-11T05:08:40.617Z,95334.09
2023-03-11T05:11:26.498Z,95337.81
2023-03-11T05:14:12.009Z,95303.72
2023-03-11T05:16:58.349Z,95441.25
2023-03-11T05:19:44.243Z,95488.22
2023-03-11T05:22:38.699Z,95500.84
2023-03-11T05:25:25.157Z,95467.22
2023-03-11T05:28:10.642Z,95375.16
2023-03-11T05:31:01.709Z,95493.22
2023-03-11T05:33:50.382Z,95463.84
2023-03-11T05:36:35.733Z,95366.63
2023-03-11T05:39:21.649Z,95498.81
2023-03-11T05:42:08.244Z,95468.09
2023-03-11T05:44:54.506Z,95452.41
2023-03-11T05:47:42.551Z,95502.63
2023-03-11T05:50:30.317Z,95495.50
2023-03-11T05:53:16.400Z,95513.59
2023-03-11T05:56:01.983Z,95518.94
2023-03-11T05:58:49.165Z,95552.31
2023-03-11T06:01:36.097Z,95507.44
2023-03-11T06:04:21.986Z,95363.75
2023-03-11T06:07:08.285Z,95507.44
2023-03-11T06:09:57.291Z,95370.19
2023-03-11T06:12:42.578Z,95368.66
2023-03-11T06:15:38.150Z,95519.09
2023-03-11T06:18:26.572Z,95554.97
2023-03-11T06:21:23.958Z,95542.97
2023-03-11T06:24:09.411Z,95379.06
2023-03-11T06:26:55.875Z,95541.28
2023-03-11T06:29:43.881Z,95370.53
2023-03-11T06:32:30.718Z,95398.94
2023-03-11T06:35:16.146Z,95524.00
2023-03-11T06:38:01.691Z,95570.28
2023-03-11T06:40:47.485Z,95533.16
2023-03-11T06:43:34.746Z,95415.84
2023-03-11T06:46:22.867Z,95517.44
2023-03-11T06:49:10.249Z,95448.59
2023-03-11T06:51:58.127Z,95481.56
2023-03-11T06:54:44.343Z,95520.28
2023-03-11T06:57:31.708Z,95383.69
2023-03-11T07:00:20.748Z,95517.41
2023-03-11T07:03:12.004Z,95521.88
2023-03-11T07:05:58.604Z,95508.34
2023-03-11T07:08:44.245Z,95521.34
2023-03-11T07:11:30.854Z,95547.00
2023-03-11T07:14:23.864Z,95539.50
2023-03-11T07:17:13.148Z,95545.72
2023-03-11T07:20:07.354Z,95523.09
2023-03-11T07:22:53.487Z,95563.00
2023-03-11T07:25:39.181Z,95543.06
2023-03-11T07:28:26.486Z,95563.63
2023-03-11T07:31:17.935Z,95530.25
2023-03-11T07:34:11.135Z,95419.31
2023-03-11T07:36:56.899Z,95396.72
2023-03-11T07:39:42.656Z,95398.09
2023-03-11T07:42:28.627Z,95584.09
2023-03-11T07:45:14.228Z,95554.78
2023-03-11T07:47:59.409Z,95587.19
2023-03-11T07:50:44.745Z,95587.25
2023-03-11T07:53:30.058Z,95527.94
2023-03-11T07:56:17.599Z,95564.72
2023-03-11T07:59:04.985Z,95594.47
2023-03-11T08:01:50.747Z,95555.63
2023-03-11T08:04:36.142Z,95568.28
2023-03-11T08:07:21.585Z,95505.84
2023-03-11T08:10:07.342Z,95431.84
2023-03-11T08:12:52.961Z,95422.06
2023-03-11T08:15:38.524Z,95569.84
2023-03-11T08:18:25.769Z,95563.72
2023-03-11T08:21:14.732Z,95534.28
2023-03-11T08:24:01.928Z,95569.31
2023-03-11T08:26:49.220Z,95564.50
2023-03-11T08:29:35.318Z,95402.16
2023-03-11T08:32:20.980Z,95410.88
2023-03-11T08:35:07.115Z,95585.50
2023-03-11T08:37:53.125Z,95537.78
2023-03-11T08:40:38.901Z,95539.88
2023-03-11T08:43:24.286Z,95558.06
2023-03-11T08:46:15.883Z,95509.03
2023-03-11T08:49:02.452Z,95573.38
2023-03-11T08:51:48.210Z,95504.41
2023-03-11T08:54:33.555Z,95569.97
2023-03-11T08:57:19.441Z,95529.84
2023-03-11T09:00:07.315Z,95561.22
2023-03-11T09:02:52.926Z,95554.88
2023-03-11T09:05:38.807Z,95568.47
2023-03-11T09:08:24.393Z,95574.00
2023-03-11T09:11:10.657Z,95571.19
2023-03-11T09:13:56.033Z,95536.97
2023-03-11T09:16:41.390Z,95566.59
2023-03-11T09:19:27.189Z,95566.91
2023-03-11T09:22:13.331Z,95583.09
2023-03-11T09:24:59.175Z,95567.72
2023-03-11T09:27:44.490Z,95580.25
2023-03-11T09:30:30.142Z,95577.97
2023-03-11T09:33:15.676Z,95585.00
2023-03-11T09:36:01.874Z,95570.69
2023-03-11T09:38:48.210Z,95424.34
2023-03-11T09:41:58.794Z,95590.44
2023-03-11T09:45:17.598Z,95485.19
2023-03-11T09:48:32.471Z,95597.94
2023-03-11T09:51:27.565Z,95571.53
2023-03-11T09:54:13.995Z,95417.34
2023-03-11T09:57:03.094Z,95443.22
2023-03-11T09:59:49.391Z,95571.06
2023-03-11T10:02:37.192Z,95524.50
2023-03-11T10:05:28.727Z,95592.81
2023-03-11T10:08:24.025Z,95579.28
2023-03-11T10:11:37.409Z,95586.94
2023-03-11T10:14:40.137Z,95625.63
2023-03-11T10:17:31.648Z,95607.44
2023-03-11T10:20:47.970Z,95620.75
2023-03-11T10:23:46.811Z,95639.56
2023-03-11T10:26:37.328Z,95605.56
2023-03-11T10:29:29.813Z,95615.72
2023-03-11T10:32:30.007Z,95604.97
2023-03-11T10:35:17.359Z,95571.72
2023-03-11T10:38:14.966Z,95501.56
2023-03-11T10:41:06.561Z,95578.03
2023-03-11T10:44:06.604Z,95610.81
2023-03-11T10:46:52.226Z,95552.13
2023-03-11T10:49:37.682Z,95577.94
2023-03-11T10:52:23.164Z,95481.25
2023-03-11T10:55:08.991Z,95572.41
2023-03-11T10:58:05.260Z,95614.09
2023-03-11T11:01:07.802Z,95594.84
2023-03-11T11:03:56.145Z,95596.22
2023-03-11T11:06:41.649Z,95506.41
2023-03-11T11:09:31.244Z,95606.16
2023-03-11T11:12:20.038Z,95543.56
2023-03-11T11:15:07.437Z,95509.44
2023-03-11T11:17:56.816Z,95551.41
2023-03-11T11:20:56.564Z,95573.84
2023-03-11T11:23:46.937Z,95612.84
2023-03-11T11:26:33.237Z,95567.06
2023-03-11T11:29:19.057Z,95621.56
2023-03-11T11:32:19.616Z,95571.63
2023-03-11T11:35:12.206Z,95599.50
2023-03-11T11:38:04.310Z,95446.22
2023-03-11T11:40:51.510Z,95630.72
2023-03-11T11:43:55.628Z,95635.03
2023-03-11T11:46:47.436Z,95645.78
2023-03-11T11:49:35.538Z,95475.38
2023-03-11T11:52:30.646Z,95421.44
2023-03-11T11:55:25.272Z,95624.22
2023-03-11T11:58:14.627Z,95625.47
2023-03-11T12:01:28.193Z,95612.13
2023-03-11T12:04:45.733Z,95624.28
2023-03-11T12:07:55.622Z,95604.47
2023-03-11T12:10:45.185Z,95442.75
2023-03-11T12:14:08.532Z,95618.81
2023-03-11T12:17:04.221Z,95618.81
2023-03-11T12:19:58.114Z,95613.72
2023-03-11T12:23:11.753Z,95648.28
2023-03-11T12:26:19.312Z,95473.16
2023-03-11T12:29:17.379Z,95477.78
2023-03-11T12:32:03.730Z,95554.38
2023-03-11T12:34:49.570Z,95602.38
2023-03-11T12:37:35.809Z,95626.59
2023-03-11T12:40:43.911Z,95656.09
2023-03-11T12:43:35.393Z,95660.19
2023-03-11T12:46:21.808Z,95669.41
2023-03-11T12:49:15.007Z,95644.41
2023-03-11T12:52:15.924Z,95655.72
2023-03-11T12:55:01.543Z,95659.53
2023-03-11T12:57:47.248Z,95669.06
2023-03-11T13:00:38.625Z,95667.63
2023-03-11T13:03:39.282Z,95543.78
2023-03-11T13:06:40.059Z,95678.94
2023-03-11T13:09:25.782Z,95548.88
2023-03-11T13:12:53.687Z,95694.34
2023-03-11T13:15:41.635Z,95511.44
2023-03-11T13:18:30.381Z,95581.84
2023-03-11T13:21:28.050Z,95746.41
2023-03-11T13:24:19.517Z,95731.22
2023-03-11T13:27:22.882Z,95567.50
2023-03-11T13:30:34.871Z,95736.47
2023-03-11T13:33:29.689Z,95658.63
2023-03-11T13:36:30.016Z,95631.81
2023-03-11T13:39:26.242Z,95776.84
2023-03-11T13:42:24.265Z,95770.63
2023-03-11T13:45:26.279Z,95767.09
2023-03-11T13:48:17.469Z,95751.94
2023-03-11T13:51:16.410Z,95795.63
2023-03-11T13:54:09.225Z,95767.34
2023-03-11T13:56:58.620Z,95820.47
2023-03-11T13:59:44.370Z,95828.31
2023-03-11T14:02:29.830Z,95836.69
2023-03-11T14:05:27.127Z,95826.69
2023-03-11T14:08:27.348Z,95840.59
2023-03-11T14:11:17.602Z,95666.38
2023-03-11T14:14:38.178Z,95811.50
2023-03-11T14:17:23.945Z,95882.66
2023-03-11T14:20:22.498Z,95803.63
2023-03-11T14:23:18.648Z,95857.56
2023-03-11T14:26:12.810Z,95877.53
2023-03-11T14:29:01.276Z,95857.00
2023-03-11T14:31:47.856Z,95878.38
2023-03-11T14:34:40.515Z,95865.94
2023-03-11T14:37:38.644Z,95844.69
2023-03-11T14:40:41.923Z,95900.59
2023-03-11T14:43:37.201Z,95877.41
2023-03-11T14:46:27.815Z,95879.81
2023-03-11T14:49:20.923Z,95892.47
2023-03-11T14:52:15.898Z,95878.97
2023-03-11T14:55:10.990Z,95900.34
2023-03-11T14:58:05.968Z,95787.94
2023-03-11T15:01:18.713Z,95933.09
2023-03-11T15:04:04.244Z,95925.91
2023-03-11T15:06:50.474Z,95859.09
2023-03-11T15:09:40.183Z,95947.41
2023-03-11T15:12:43.220Z,95941.66
2023-03-11T15:15:29.941Z,95761.38
2023-03-11T15:18:23.224Z,95993.00
2023-03-11T15:21:20.927Z,95770.94
2023-03-11T15:24:07.245Z,95919.84
2023-03-11T15:26:54.481Z,95919.56
2023-03-11T15:29:40.296Z,95956.34
2023-03-11T15:32:39.104Z,95957.09
2023-03-11T15:35:30.438Z,95894.84
2023-03-11T15:38:25.924Z,95985.59
2023-03-11T15:41:12.608Z,95982.78
2023-03-11T15:44:02.070Z,95972.34
2023-03-11T15:46:47.751Z,96000.22
2023-03-11T15:49:33.960Z,95961.16
2023-03-11T15:52:20.254Z,96002.72
2023-03-11T15:55:06.596Z,95822.19
2023-03-11T15:58:06.182Z,95819.97
2023-03-11T16:00:56.501Z,96017.53
2023-03-11T16:03:44.850Z,95962.53
2023-03-11T16:06:30.244Z,96002.88
2023-03-11T16:09:16.223Z,96022.88
2023-03-11T16:12:02.043Z,96048.06
2023-03-11T16:14:49.240Z,96056.69
2023-03-11T16:17:48.941Z,96053.53
2023-03-11T16:20:43.864Z,96072.88
2023-03-11T16:23:50.148Z,96057.31
2023-03-11T16:26:36.642Z,95899.31
2023-03-11T16:29:23.642Z,96058.22
2023-03-11T16:32:10.630Z,96065.13
2023-03-11T16:34:57.245Z,96064.41
2023-03-11T16:37:43.688Z,95881.06
2023-03-11T16:40:29.972Z,96103.94
2023-03-11T16:43:15.480Z,96089.78
2023-03-11T16:46:01.120Z,96042.66
2023-03-11T16:48:46.763Z,96082.47
2023-03-11T16:51:33.171Z,95925.41
2023-03-11T16:54:18.709Z,96109.31
2023-03-11T16:57:04.562Z,96132.97
2023-03-11T16:59:49.918Z,96126.91
2023-03-11T17:02:36.684Z,96057.66
2023-03-11T17:05:23.122Z,96126.63
2023-03-11T17:08:09.506Z,95892.63
2023-03-11T17:10:55.271Z,96130.28
2023-03-11T17:13:40.798Z,96138.63
2023-03-11T17:16:26.171Z,96140.53
2023-03-11T17:19:11.664Z,96107.00
2023-03-11T17:21:57.750Z,95968.03
2023-03-11T17:24:43.329Z,96027.94
2023-03-11T17:27:32.436Z,96164.34
2023-03-11T17:30:30.559Z,95951.75
2023-03-11T17:33:21.106Z,96174.75
2023-03-11T17:36:08.501Z,95976.78
2023-03-11T17:38:54.949Z,96026.75
2023-03-11T17:41:41.084Z,95564.63
2023-03-11T17:44:27.028Z,96177.78
2023-03-11T17:47:12.761Z,96093.56
2023-03-11T17:49:58.149Z,96040.50
2023-03-11T17:52:45.650Z,96134.88
2023-03-11T17:55:31.690Z,96224.59
2023-03-11T17:58:17.075Z,96250.94
2023-03-11T18:01:04.823Z,96139.63
2023-03-11T18:03:50.658Z,96148.53
2023-03-11T18:06:36.643Z,96068.13
2023-03-11T18:09:22.558Z,96202.56
2023-03-11T18:12:08.139Z,96249.41
2023-03-11T18:14:53.462Z,96221.56
2023-03-11T18:17:38.724Z,96241.56
2023-03-11T18:20:24.334Z,96069.50
2023-03-11T18:23:09.574Z,96127.75
2023-03-11T18:25:55.250Z,96166.16
2023-03-11T18:28:41.764Z,96294.53
2023-03-11T18:31:29.632Z,96238.00
2023-03-11T18:34:15.131Z,96264.31
2023-03-11T18:37:01.963Z,96288.56
2023-03-11T18:39:47.805Z,96291.34
2023-03-11T18:42:33.713Z,96151.09
2023-03-11T18:45:19.531Z,96315.03
2023-03-11T18:48:05.876Z,96329.41
2023-03-11T18:50:55.492Z,96266.22
2023-03-11T18:53:42.955Z,96321.56
2023-03-11T18:56:32.391Z,96135.38
2023-03-11T18:59:18.056Z,96307.53
2023-03-11T19:02:03.495Z,96216.59
2023-03-11T19:04:49.098Z,96251.38
2023-03-11T19:07:34.753Z,96356.41
2023-03-11T19:10:20.423Z,96175.06
2023-03-11T19:13:05.862Z,96330.50
2023-03-11T19:15:52.210Z,96484.19
2023-03-11T19:18:38.880Z,96379.03
2023-03-11T19:21:26.180Z,96435.56
2023-03-11T19:24:12.698Z,96418.28
2023-03-11T19:26:58.440Z,96259.22
2023-03-11T19:29:44.499Z,96415.66
2023-03-11T19:32:30.004Z,96243.13
2023-03-11T19:35:17.240Z,96441.13
2023-03-11T19:38:03.175Z,96390.22
2023-03-11T19:41:18.673Z,96467.13
2023-03-11T19:44:04.569Z,96455.94
2023-03-11T19:46:50.487Z,96461.56
2023-03-11T19:49:36.867Z,96493.56
2023-03-11T19:52:23.688Z,96479.78
2023-03-11T19:55:09.568Z,96444.00
2023-03-11T19:57:55.024Z,96480.25
2023-03-11T20:00:42.055Z,96280.28
2023-03-11T20:03:28.791Z,96439.88
2023-03-11T20:06:16.556Z,96495.06
2023-03-11T20:09:02.227Z,96506.94
2023-03-11T20:11:47.889Z,96479.03
2023-03-11T20:14:33.191Z,96488.78
2023-03-11T20:17:18.637Z,96478.69
2023-03-11T20:20:04.667Z,96524.00
2023-03-11T20:22:50.352Z,96522.22
2023-03-11T20:25:38.873Z,96525.19
2023-03-11T20:28:24.963Z,96549.28
2023-03-11T20:31:12.515Z,96557.09
2023-03-11T20:33:58.925Z,96556.91
2023-03-11T20:36:44.475Z,96338.56
2023-03-11T20:39:29.805Z,96538.69
2023-03-11T20:42:15.264Z,96372.16
2023-03-11T20:45:01.014Z,96529.09
2023-03-11T20:47:46.826Z,96417.13
2023-03-11T20:50:32.674Z,96413.88
2023-03-11T20:53:18.131Z,96612.66
2023-03-11T20:56:09.549Z,96599.44
2023-03-11T20:58:56.466Z,96636.13
2023-03-11T21:01:42.180Z,96667.06
2023-03-11T21:04:27.986Z,96529.34
2023-03-11T21:07:14.292Z,96412.03
2023-03-11T21:09:59.754Z,96580.72
2023-03-11T21:12:45.203Z,96583.81
2023-03-11T21:15:35.293Z,96643.97
2023-03-11T21:18:21.221Z,96442.84
2023-03-11T21:21:08.492Z,96642.69
2023-03-11T21:23:54.238Z,96625.03
2023-03-11T21:26:39.764Z,96626.69
2023-03-11T21:29:25.143Z,96460.25
2023-03-11T21:32:11.245Z,96651.56
2023-03-11T21:35:01.585Z,96639.75
2023-03-11T21:37:47.514Z,96667.03
2023-03-11T21:40:33.486Z,96656.47
2023-03-11T21:43:20.956Z,96730.63
2023-03-11T21:46:07.590Z,96710.25
2023-03-11T21:48:53.752Z,96475.78
2023-03-11T21:51:39.893Z,96713.50
2023-03-11T21:54:26.221Z,96660.97
2023-03-11T21:57:12.228Z,96753.59
2023-03-11T21:59:57.996Z,96749.41
2023-03-11T22:02:44.058Z,96729.78
2023-03-11T22:05:30.227Z,96576.56
2023-03-11T22:08:15.561Z,96650.03
2023-03-11T22:11:01.677Z,96742.13
2023-03-11T22:13:48.769Z,96745.06
2023-03-11T22:16:35.360Z,96571.22
2023-03-11T22:19:21.730Z,96695.31
2023-03-11T22:22:07.204Z,96753.88
2023-03-11T22:24:52.969Z,96765.00
2023-03-11T22:27:40.688Z,96774.25
2023-03-11T22:30:26.547Z,96794.41
2023-03-11T22:33:12.346Z,96567.53
2023-03-11T22:35:59.523Z,96574.81
2023-03-11T22:38:45.867Z,96791.09
2023-03-11T22:41:32.087Z,96793.25
2023-03-11T22:44:17.603Z,96806.88
2023-03-11T22:47:03.230Z,96809.19
2023-03-11T22:49:48.727Z,96816.28
2023-03-11T22:52:34.210Z,96812.47
2023-03-11T22:55:19.664Z,96812.47
2023-03-11T22:58:04.940Z,96843.00
2023-03-11T23:00:50.401Z,96767.03
2023-03-11T23:03:36.961Z,96755.66
2023-03-11T23:06:22.816Z,96826.09
2023-03-11T23:09:08.493Z,96806.66
2023-03-11T23:11:54.409Z,96745.91
2023-03-11T23:14:44.847Z,96647.16
2023-03-11T23:17:30.601Z,96846.91
2023-03-11T23:20:17.329Z,96863.94
2023-03-11T23:23:03.382Z,96678.09
2023-03-11T23:25:48.913Z,96837.41
2023-03-11T23:28:34.479Z,96820.22
2023-03-11T23:31:22.135Z,96821.63
2023-03-11T23:34:08.107Z,96889.28
2023-03-11T23:36:53.548Z,96672.16
2023-03-11T23:39:39.273Z,96806.06
2023-03-11T23:42:26.298Z,96864.88
2023-03-11T23:45:11.949Z,96857.31
2023-03-11T23:47:57.689Z,96916.38
2023-03-11T23:50:47.564Z,96935.44
2023-03-11T23:53:33.266Z,96914.38
2023-03-11T23:56:19.292Z,96912.56
2023-03-11T23:59:04.860Z,96912.09
